createdAt,value
2019-05-23T00:01:11.615Z,101340.12
2019-05-23T00:04:07.749Z,101335.30
2019-05-23T00:06:56.094Z,101329.42
2019-05-23T00:09:43.969Z,101329.48
2019-05-23T00:12:45.775Z,101332.62
2019-05-23T00:15:27.744Z,101336.58
2019-05-23T00:17:59.327Z,101341.65
2019-05-23T00:20:31.067Z,101342.77
2019-05-23T00:23:01.293Z,101338.14
2019-05-23T00:25:33.219Z,101342.53
2019-05-23T00:28:05.766Z,101344.88
2019-05-23T00:30:52.218Z,101348.71
2019-05-23T00:33:25.543Z,101339.80
2019-05-23T00:35:56.508Z,101336.98
2019-05-23T00:38:27.962Z,101342.23
2019-05-23T00:40:59.737Z,101337.83
2019-05-23T00:43:29.574Z,101338.39
2019-05-23T00:45:59.988Z,101331.46
2019-05-23T00:48:30.257Z,101334.80
2019-05-23T00:51:05.172Z,101345.59
2019-05-23T00:53:37.190Z,101334.46
2019-05-23T00:56:09.725Z,101340.25
2019-05-23T00:58:41.097Z,101344.95
2019-05-23T01:01:11.564Z,101340.39
2019-05-23T01:03:41.819Z,101354.03
2019-05-23T01:06:14.078Z,101347.58
2019-05-23T01:08:44.551Z,101342.91
2019-05-23T01:11:16.181Z,101337.87
2019-05-23T01:13:46.855Z,101342.75
2019-05-23T01:16:19.891Z,101338.67
2019-05-23T01:18:51.909Z,101343.56
2019-05-23T01:21:43.464Z,101339.59
2019-05-23T01:24:20.911Z,101336.08
2019-05-23T01:26:51.764Z,101335.57
2019-05-23T01:29:24.601Z,101337.39
2019-05-23T01:32:00.575Z,101333.61
2019-05-23T01:34:32.238Z,101330.95
2019-05-23T01:37:02.376Z,101329.89
2019-05-23T01:39:32.735Z,101329.61
2019-05-23T01:42:03.839Z,101329.50
2019-05-23T01:44:33.917Z,101334.90
2019-05-23T01:47:05.150Z,101334.03
2019-05-23T01:49:36.122Z,101332.44
2019-05-23T01:52:07.428Z,101332.84
2019-05-23T01:54:38.619Z,101334.15
2019-05-23T01:57:09.817Z,101335.10
2019-05-23T01:59:40.390Z,101338.17
2019-05-23T02:02:13.399Z,101334.41
2019-05-23T02:04:44.247Z,101334.11
2019-05-23T02:07:14.478Z,101333.09
2019-05-23T02:09:44.299Z,101338.33
2019-05-23T02:12:15.732Z,101342.97
2019-05-23T02:14:46.870Z,101338.98
2019-05-23T02:17:17.250Z,101340.25
2019-05-23T02:19:48.216Z,101338.13
2019-05-23T02:22:18.185Z,101342.70
2019-05-23T02:24:48.827Z,101341.45
2019-05-23T02:27:20.474Z,101343.41
2019-05-23T02:29:52.087Z,101339.80
2019-05-23T02:32:23.483Z,101345.06
2019-05-23T02:34:54.338Z,101341.49
2019-05-23T02:37:42.260Z,101339.17
2019-05-23T02:40:17.902Z,101338.13
2019-05-23T02:42:54.703Z,101341.55
2019-05-23T02:45:31.946Z,101341.03
2019-05-23T02:48:03.532Z,101329.17
2019-05-23T02:50:41.466Z,101329.92
2019-05-23T02:53:15.133Z,101334.05
2019-05-23T02:55:46.568Z,101332.44
2019-05-23T02:58:31.681Z,101329.38
2019-05-23T03:01:30.750Z,101339.63
2019-05-23T03:04:05.790Z,101331.69
2019-05-23T03:06:38.072Z,101330.86
2019-05-23T03:09:08.809Z,101329.20
2019-05-23T03:11:45.638Z,101328.66
2019-05-23T03:14:19.231Z,101327.40
2019-05-23T03:16:52.247Z,101320.56
2019-05-23T03:19:32.432Z,101323.31
2019-05-23T03:22:40.686Z,101318.64
2019-05-23T03:25:54.605Z,101318.28
2019-05-23T03:28:27.406Z,101313.02
2019-05-23T03:31:25.195Z,101310.50
2019-05-23T03:33:33.575Z,101309.59
2019-05-23T03:36:03.705Z,101304.22
2019-05-23T03:38:36.474Z,101307.44
2019-05-23T03:41:08.183Z,101303.30
2019-05-23T03:43:39.313Z,101304.00
2019-05-23T03:46:11.097Z,101308.48
2019-05-23T03:48:42.297Z,101301.48
2019-05-23T03:51:12.109Z,101307.38
2019-05-23T03:53:43.303Z,101305.20
2019-05-23T03:56:13.508Z,101284.79
2019-05-23T03:58:43.299Z,101305.07
2019-05-23T04:01:15.588Z,101308.28
2019-05-23T04:03:45.605Z,101309.66
2019-05-23T04:06:16.662Z,101304.02
2019-05-23T04:08:46.738Z,101302.19
2019-05-23T04:11:16.859Z,101306.12
2019-05-23T04:13:47.597Z,101307.87
2019-05-23T04:16:17.844Z,101309.80
2019-05-23T04:18:48.648Z,101306.20
2019-05-23T04:21:23.243Z,101306.92
2019-05-23T04:23:52.798Z,101305.36
2019-05-23T04:26:22.942Z,101313.98
2019-05-23T04:28:56.644Z,101314.63
2019-05-23T04:31:27.255Z,101317.99
2019-05-23T04:33:57.812Z,101315.07
2019-05-23T04:36:28.282Z,101310.32
2019-05-23T04:38:58.902Z,101310.93
2019-05-23T04:41:29.930Z,101312.47
2019-05-23T04:44:00.314Z,101314.73
2019-05-23T04:46:30.213Z,101310.12
2019-05-23T04:49:00.433Z,101311.06
2019-05-23T04:51:32.691Z,101316.97
2019-05-23T04:54:03.246Z,101314.31
2019-05-23T04:56:33.306Z,101316.49
2019-05-23T04:59:07.136Z,101322.42
2019-05-23T05:01:38.118Z,101318.95
2019-05-23T05:04:09.928Z,101310.97
2019-05-23T05:06:40.103Z,101317.27
2019-05-23T05:09:13.978Z,101316.21
2019-05-23T05:11:44.468Z,101312.59
2019-05-23T05:14:14.787Z,101311.52
2019-05-23T05:16:44.912Z,101320.06
2019-05-23T05:19:14.966Z,101313.92
2019-05-23T05:21:46.145Z,101315.34
2019-05-23T05:24:16.147Z,101318.03
2019-05-23T05:26:46.584Z,101320.22
2019-05-23T05:29:16.614Z,101317.65
2019-05-23T05:31:47.021Z,101322.52
2019-05-23T05:34:17.062Z,101323.89
2019-05-23T05:36:48.442Z,101332.72
2019-05-23T05:39:19.955Z,101329.98
2019-05-23T05:41:50.227Z,101326.80
2019-05-23T05:44:20.311Z,101334.13
2019-05-23T05:46:50.413Z,101332.99
2019-05-23T05:49:21.154Z,101337.03
2019-05-23T05:51:51.282Z,101337.08
2019-05-23T05:54:21.683Z,101339.02
2019-05-23T05:56:51.960Z,101330.17
2019-05-23T05:59:21.830Z,101338.27
2019-05-23T06:01:53.284Z,101348.65
2019-05-23T06:04:23.886Z,101344.63
2019-05-23T06:07:25.606Z,101345.92
2019-05-23T06:09:57.542Z,101342.03
2019-05-23T06:12:27.806Z,101339.41
2019-05-23T06:14:58.046Z,101347.00
2019-05-23T06:17:29.252Z,101346.43
2019-05-23T06:19:59.642Z,101343.22
2019-05-23T06:22:30.586Z,101345.90
2019-05-23T06:25:01.178Z,101348.99
2019-05-23T06:27:31.922Z,101334.30
2019-05-23T06:30:02.197Z,101346.63
2019-05-23T06:32:32.704Z,101346.90
2019-05-23T06:35:03.464Z,101343.11
2019-05-23T06:37:34.542Z,101338.06
2019-05-23T06:40:06.436Z,101351.17
2019-05-23T06:42:36.469Z,101345.58
2019-05-23T06:45:07.850Z,101350.59
2019-05-23T06:47:40.541Z,101352.02
2019-05-23T06:50:16.258Z,101350.23
2019-05-23T06:52:46.176Z,101350.81
2019-05-23T06:55:16.080Z,101346.03
2019-05-23T06:57:46.044Z,101347.87
2019-05-23T07:00:19.779Z,101348.92
2019-05-23T07:02:50.074Z,101348.97
2019-05-23T07:05:24.147Z,101350.81
2019-05-23T07:07:54.527Z,101352.48
2019-05-23T07:10:25.497Z,101349.05
2019-05-23T07:12:55.913Z,101348.06
2019-05-23T07:15:27.405Z,101350.38
2019-05-23T07:17:58.602Z,101350.12
2019-05-23T07:20:29.036Z,101350.20
2019-05-23T07:22:59.525Z,101346.68
2019-05-23T07:25:29.905Z,101345.30
2019-05-23T07:28:00.653Z,101355.38
2019-05-23T07:30:31.012Z,101354.74
2019-05-23T07:33:01.098Z,101350.97
2019-05-23T07:35:31.454Z,101360.90
2019-05-23T07:38:01.807Z,101358.75
2019-05-23T07:40:32.669Z,101352.26
2019-05-23T07:43:04.289Z,101356.08
2019-05-23T07:45:43.644Z,101352.39
2019-05-23T07:48:13.910Z,101355.34
2019-05-23T07:50:44.261Z,101352.92
2019-05-23T07:53:18.636Z,101357.87
2019-05-23T07:55:48.763Z,101358.01
2019-05-23T07:58:18.927Z,101351.79
2019-05-23T08:00:54.787Z,101348.97
2019-05-23T08:03:28.210Z,101355.06
2019-05-23T08:05:58.947Z,101356.08
2019-05-23T08:08:28.856Z,101354.70
2019-05-23T08:10:58.883Z,101352.77
2019-05-23T08:13:29.557Z,101350.06
2019-05-23T08:15:59.623Z,101352.20
2019-05-23T08:18:29.643Z,101349.63
2019-05-23T08:21:00.007Z,101347.84
2019-05-23T08:23:30.169Z,101353.01
2019-05-23T08:26:00.013Z,101353.35
2019-05-23T08:28:30.492Z,101353.35
2019-05-23T08:31:00.961Z,101347.06
2019-05-23T08:33:31.083Z,101349.01
2019-05-23T08:36:01.155Z,101345.56
2019-05-23T08:38:31.990Z,101346.69
2019-05-23T08:41:02.499Z,101349.13
2019-05-23T08:43:32.925Z,101354.77
2019-05-23T08:46:03.046Z,101351.36
2019-05-23T08:48:33.427Z,101349.67
2019-05-23T08:51:04.650Z,101354.72
2019-05-23T08:53:34.997Z,101350.94
2019-05-23T08:56:17.910Z,101344.38
2019-05-23T08:58:37.351Z,101353.91
2019-05-23T09:01:07.949Z,101352.13
2019-05-23T09:03:38.627Z,101342.41
2019-05-23T09:06:08.851Z,101344.91
2019-05-23T09:08:39.792Z,101342.25
2019-05-23T09:11:10.114Z,101340.08
2019-05-23T09:13:40.036Z,101335.34
2019-05-23T09:16:11.281Z,101338.28
2019-05-23T09:18:41.722Z,101334.70
2019-05-23T09:21:12.109Z,101332.54
2019-05-23T09:23:43.430Z,101330.85
2019-05-23T09:26:14.377Z,101327.30
2019-05-23T09:28:46.035Z,101320.66
2019-05-23T09:31:16.645Z,101330.41
2019-05-23T09:33:46.786Z,101326.83
2019-05-23T09:36:16.741Z,101323.73
2019-05-23T09:38:46.911Z,101321.29
2019-05-23T09:41:18.053Z,101320.19
2019-05-23T09:43:47.998Z,101316.06
2019-05-23T09:46:17.869Z,101325.13
2019-05-23T09:48:47.878Z,101314.12
2019-05-23T09:51:18.129Z,101310.49
2019-05-23T09:53:48.079Z,101309.66
2019-05-23T09:56:18.305Z,101305.93
2019-05-23T09:58:48.545Z,101310.38
2019-05-23T10:01:19.215Z,101306.88
2019-05-23T10:03:49.679Z,101303.16
2019-05-23T10:06:20.076Z,101306.00
2019-05-23T10:08:50.353Z,101300.09
2019-05-23T10:11:21.269Z,101297.77
2019-05-23T10:13:51.098Z,101299.78
2019-05-23T10:16:21.032Z,101300.39
2019-05-23T10:18:51.491Z,101295.56
2019-05-23T10:21:21.870Z,101289.27
2019-05-23T10:23:52.017Z,101296.68
2019-05-23T10:26:22.153Z,101292.67
2019-05-23T10:28:52.127Z,101291.64
2019-05-23T10:31:22.401Z,101291.89
2019-05-23T10:33:52.954Z,101290.66
2019-05-23T10:36:22.863Z,101287.11
2019-05-23T10:38:53.366Z,101281.76
2019-05-23T10:41:23.279Z,101281.77
2019-05-23T10:43:54.534Z,101274.48
2019-05-23T10:46:24.996Z,101279.62
2019-05-23T10:48:54.817Z,101276.97
2019-05-23T10:51:25.050Z,101266.78
2019-05-23T10:53:55.530Z,101267.06
2019-05-23T10:56:25.666Z,101268.56
2019-05-23T10:58:55.624Z,101271.37
2019-05-23T11:01:26.515Z,101268.80
2019-05-23T11:03:56.337Z,101257.83
2019-05-23T11:06:26.700Z,101262.97
2019-05-23T11:08:57.972Z,101260.25
2019-05-23T11:11:28.143Z,101255.46
2019-05-23T11:13:58.450Z,101257.02
2019-05-23T11:16:30.659Z,101258.59
2019-05-23T11:19:00.559Z,101257.02
2019-05-23T11:21:30.773Z,101260.20
2019-05-23T11:24:01.356Z,101252.91
2019-05-23T11:26:31.671Z,101245.81
2019-05-23T11:29:02.268Z,101248.38
2019-05-23T11:31:32.212Z,101245.12
2019-05-23T11:34:02.134Z,101247.30
2019-05-23T11:36:36.274Z,101243.44
2019-05-23T11:39:05.593Z,101231.54
2019-05-23T11:41:35.883Z,101217.87
2019-05-23T11:44:06.581Z,101223.69
2019-05-23T11:46:37.834Z,101225.24
2019-05-23T11:49:08.171Z,101223.44
2019-05-23T11:51:38.203Z,101215.75
2019-05-23T11:54:10.099Z,101217.98
2019-05-23T11:56:41.616Z,101217.97
2019-05-23T11:59:11.585Z,101215.20
2019-05-23T12:02:06.586Z,101209.91
2019-05-23T12:04:45.724Z,101211.06
2019-05-23T12:07:27.865Z,101209.64
2019-05-23T12:09:57.837Z,101213.53
2019-05-23T12:12:27.948Z,101208.48
2019-05-23T12:14:58.035Z,101206.37
2019-05-23T12:17:30.186Z,101208.78
2019-05-23T12:20:00.522Z,101202.55
2019-05-23T12:22:30.878Z,101197.51
2019-05-23T12:25:18.194Z,101195.52
2019-05-23T12:27:32.814Z,101194.63
2019-05-23T12:30:04.452Z,101192.30
2019-05-23T12:32:34.735Z,101198.20
2019-05-23T12:35:11.211Z,101189.19
2019-05-23T12:37:37.134Z,101188.11
2019-05-23T12:40:09.080Z,101177.33
2019-05-23T12:42:38.979Z,101175.59
2019-05-23T12:45:09.335Z,101178.85
2019-05-23T12:47:50.879Z,101177.02
2019-05-23T12:50:24.255Z,101174.73
2019-05-23T12:52:54.272Z,101166.50
2019-05-23T12:55:24.985Z,101165.95
2019-05-23T12:58:24.045Z,101159.88
2019-05-23T13:00:56.369Z,101161.74
2019-05-23T13:03:26.442Z,101158.76
2019-05-23T13:05:56.723Z,101164.94
2019-05-23T13:08:27.425Z,101154.80
2019-05-23T13:10:57.857Z,101156.48
2019-05-23T13:13:28.234Z,101152.34
2019-05-23T13:15:58.389Z,101150.13
2019-05-23T13:18:28.778Z,101151.57
2019-05-23T13:20:59.887Z,101155.22
2019-05-23T13:23:30.173Z,101150.84
2019-05-23T13:26:03.069Z,101146.60
2019-05-23T13:28:33.288Z,101143.68
2019-05-23T13:31:03.720Z,101145.51
2019-05-23T13:33:34.101Z,101139.94
2019-05-23T13:36:05.147Z,101135.20
2019-05-23T13:38:35.368Z,101133.00
2019-05-23T13:41:06.834Z,101130.06
2019-05-23T13:43:36.971Z,101127.25
2019-05-23T13:46:06.971Z,101128.22
2019-05-23T13:48:36.969Z,101127.25
2019-05-23T13:51:06.909Z,101110.11
2019-05-23T13:53:37.092Z,101130.41
2019-05-23T13:56:07.914Z,101125.27
2019-05-23T13:58:38.832Z,101115.14
2019-05-23T14:01:09.911Z,101123.44
2019-05-23T14:03:46.349Z,101117.80
2019-05-23T14:06:16.909Z,101114.02
2019-05-23T14:08:46.927Z,101109.80
2019-05-23T14:11:17.403Z,101112.19
2019-05-23T14:13:58.704Z,101105.30
2019-05-23T14:16:20.716Z,101106.03
2019-05-23T14:18:51.033Z,101108.43
2019-05-23T14:21:21.137Z,101101.38
2019-05-23T14:23:51.642Z,101101.10
2019-05-23T14:26:21.691Z,101103.36
2019-05-23T14:28:52.015Z,101098.88
2019-05-23T14:31:23.845Z,101099.83
2019-05-23T14:34:04.569Z,101098.72
2019-05-23T14:36:42.902Z,101096.78
2019-05-23T14:39:41.881Z,101091.97
2019-05-23T14:42:40.458Z,101091.65
2019-05-23T14:45:27.151Z,101083.47
2019-05-23T14:48:11.854Z,101082.33
2019-05-23T14:50:56.104Z,101081.69
2019-05-23T14:53:28.802Z,101077.44
2019-05-23T14:55:59.521Z,101075.91
2019-05-23T14:58:29.813Z,101070.58
2019-05-23T15:01:00.139Z,101072.85
2019-05-23T15:03:30.805Z,101065.61
2019-05-23T15:06:00.914Z,101068.66
2019-05-23T15:08:49.805Z,101072.66
2019-05-23T15:11:03.333Z,101066.33
2019-05-23T15:13:33.161Z,101068.41
2019-05-23T15:16:03.855Z,101065.31
2019-05-23T15:18:33.787Z,101065.06
2019-05-23T15:21:03.622Z,101071.09
2019-05-23T15:23:34.125Z,101069.80
2019-05-23T15:26:21.110Z,101068.95
2019-05-23T15:28:35.634Z,101061.56
2019-05-23T15:31:06.264Z,101063.56
2019-05-23T15:33:36.805Z,101062.45
2019-05-23T15:36:07.104Z,101057.47
2019-05-23T15:38:42.152Z,101054.58
2019-05-23T15:41:12.188Z,101055.87
2019-05-23T15:43:42.499Z,101056.19
2019-05-23T15:46:12.802Z,101056.11
2019-05-23T15:48:43.149Z,101054.26
2019-05-23T15:51:15.377Z,101049.38
2019-05-23T15:53:54.605Z,101045.02
2019-05-23T15:56:43.733Z,101045.42
2019-05-23T15:59:38.838Z,101045.59
2019-05-23T16:02:13.178Z,101039.66
2019-05-23T16:04:43.257Z,101042.22
2019-05-23T16:07:13.912Z,101038.83
2019-05-23T16:09:44.110Z,101039.19
2019-05-23T16:12:14.461Z,101036.70
2019-05-23T16:14:45.105Z,101033.89
2019-05-23T16:17:15.859Z,101031.65
2019-05-23T16:19:45.963Z,101027.48
2019-05-23T16:22:17.230Z,101030.69
2019-05-23T16:24:47.969Z,101021.70
2019-05-23T16:27:17.923Z,101026.52
2019-05-23T16:29:47.960Z,101027.73
2019-05-23T16:32:18.151Z,101026.19
2019-05-23T16:34:48.057Z,101022.32
2019-05-23T16:37:18.276Z,101016.70
2019-05-23T16:39:50.018Z,101015.86
2019-05-23T16:42:20.691Z,101018.26
2019-05-23T16:44:50.998Z,101017.92
2019-05-23T16:47:22.941Z,101015.36
2019-05-23T16:49:53.242Z,101018.11
2019-05-23T16:52:23.358Z,101022.42
2019-05-23T16:54:55.311Z,101015.54
2019-05-23T16:57:40.738Z,101016.82
2019-05-23T17:00:42.907Z,101019.85
2019-05-23T17:03:28.669Z,101012.22
2019-05-23T17:06:26.892Z,101008.73
2019-05-23T17:09:23.477Z,101008.89
2019-05-23T17:12:12.625Z,100989.88
2019-05-23T17:14:51.770Z,100984.72
2019-05-23T17:18:00.631Z,101005.11
2019-05-23T17:20:23.602Z,101000.98
2019-05-23T17:23:03.624Z,100995.59
2019-05-23T17:25:55.545Z,101000.59
2019-05-23T17:28:29.996Z,100997.10
2019-05-23T17:31:05.516Z,100999.66
2019-05-23T17:33:37.268Z,100995.59
2019-05-23T17:36:07.772Z,100994.54
2019-05-23T17:38:37.571Z,100993.88
2019-05-23T17:41:08.184Z,100995.11
2019-05-23T17:43:39.044Z,100999.99
2019-05-23T17:46:10.167Z,101003.94
2019-05-23T17:48:40.341Z,101002.64
2019-05-23T17:51:10.394Z,100992.84
2019-05-23T17:53:40.699Z,101001.52
2019-05-23T17:56:10.756Z,101001.88
2019-05-23T17:58:41.106Z,101003.69
2019-05-23T18:01:11.446Z,101007.16
2019-05-23T18:03:41.343Z,101005.97
2019-05-23T18:06:11.863Z,100999.71
2019-05-23T18:08:41.904Z,100999.24
2019-05-23T18:11:12.107Z,101007.13
2019-05-23T18:13:42.836Z,101006.45
2019-05-23T18:16:13.441Z,101002.03
2019-05-23T18:18:43.467Z,101002.63
2019-05-23T18:21:17.275Z,101000.38
2019-05-23T18:23:47.475Z,100999.09
2019-05-23T18:26:18.229Z,100993.30
2019-05-23T18:28:48.416Z,100985.76
2019-05-23T18:31:24.480Z,100990.11
2019-05-23T18:33:54.607Z,100988.92
2019-05-23T18:36:25.089Z,100991.70
2019-05-23T18:38:55.249Z,100984.62
2019-05-23T18:41:26.130Z,100991.81
2019-05-23T18:43:56.092Z,100989.05
2019-05-23T18:46:30.724Z,100986.41
2019-05-23T18:49:01.402Z,100980.41
2019-05-23T18:51:32.283Z,100982.19
2019-05-23T18:54:02.700Z,100982.13
2019-05-23T18:56:33.812Z,100983.70
2019-05-23T18:59:05.802Z,100978.02
2019-05-23T19:01:36.457Z,100987.15
2019-05-23T19:04:08.078Z,100990.40
2019-05-23T19:06:38.065Z,100986.46
2019-05-23T19:09:11.971Z,100984.69
2019-05-23T19:11:41.927Z,100987.70
2019-05-23T19:14:12.106Z,100983.47
2019-05-23T19:16:42.643Z,100988.58
2019-05-23T19:19:13.143Z,100984.25
2019-05-23T19:21:43.383Z,100985.12
2019-05-23T19:24:13.583Z,100994.62
2019-05-23T19:26:43.481Z,100989.02
2019-05-23T19:29:13.608Z,100995.27
2019-05-23T19:31:44.099Z,100995.94
2019-05-23T19:34:14.660Z,100995.74
2019-05-23T19:36:50.596Z,100991.78
2019-05-23T19:39:22.203Z,100992.45
2019-05-23T19:41:52.253Z,100991.31
2019-05-23T19:44:22.038Z,100987.48
2019-05-23T19:46:52.289Z,100991.59
2019-05-23T19:49:22.377Z,100956.30
2019-05-23T19:51:52.272Z,100982.58
2019-05-23T19:54:22.597Z,100980.73
2019-05-23T19:56:52.688Z,100979.57
2019-05-23T19:59:23.137Z,100976.92
2019-05-23T20:02:10.756Z,100972.91
2019-05-23T20:04:44.191Z,100948.87
2019-05-23T20:07:15.587Z,100979.80
2019-05-23T20:09:46.846Z,100982.81
2019-05-23T20:12:17.724Z,100979.83
2019-05-23T20:14:47.582Z,100976.98
2019-05-23T20:17:18.671Z,100976.75
2019-05-23T20:19:50.583Z,100981.55
2019-05-23T20:22:21.071Z,100981.88
2019-05-23T20:24:51.024Z,100977.92
2019-05-23T20:27:20.825Z,100979.52
2019-05-23T20:29:50.828Z,100978.98
2019-05-23T20:32:21.118Z,100978.95
2019-05-23T20:34:51.336Z,100976.72
2019-05-23T20:37:22.652Z,100972.08
2019-05-23T20:39:52.650Z,100970.22
2019-05-23T20:42:22.709Z,100973.21
2019-05-23T20:44:52.762Z,100981.29
2019-05-23T20:47:23.775Z,100977.02
2019-05-23T20:49:53.762Z,100980.90
2019-05-23T20:52:24.951Z,100974.09
2019-05-23T20:54:54.916Z,100971.98
2019-05-23T20:57:24.759Z,100979.27
2019-05-23T20:59:55.121Z,100979.59
2019-05-23T21:02:24.949Z,100973.77
2019-05-23T21:04:55.129Z,100970.02
2019-05-23T21:07:25.968Z,100967.27
2019-05-23T21:09:55.776Z,100968.66
2019-05-23T21:12:29.991Z,100973.05
2019-05-23T21:14:57.995Z,100967.61
2019-05-23T21:17:28.356Z,100969.15
2019-05-23T21:19:58.468Z,100974.50
2019-05-23T21:22:29.154Z,100973.88
2019-05-23T21:24:59.112Z,100970.74
2019-05-23T21:27:29.193Z,100977.74
2019-05-23T21:30:00.173Z,100972.55
2019-05-23T21:32:30.143Z,100971.44
2019-05-23T21:35:00.431Z,100967.48
2019-05-23T21:37:30.552Z,100967.75
2019-05-23T21:40:00.600Z,100973.13
2019-05-23T21:42:46.618Z,100970.59
2019-05-23T21:45:03.331Z,100965.88
2019-05-23T21:47:33.895Z,100962.83
2019-05-23T21:50:03.910Z,100959.42
2019-05-23T21:52:34.026Z,100964.36
2019-05-23T21:55:04.087Z,100959.95
2019-05-23T21:57:33.912Z,100962.73
2019-05-23T22:00:06.085Z,100955.75
2019-05-23T22:02:37.724Z,100960.20
2019-05-23T22:05:12.068Z,100956.17
2019-05-23T22:07:41.407Z,100957.98
2019-05-23T22:10:11.513Z,100954.11
2019-05-23T22:12:42.271Z,100957.50
2019-05-23T22:15:15.646Z,100952.20
2019-05-23T22:17:46.102Z,100951.20
2019-05-23T22:20:16.479Z,100916.05
2019-05-23T22:22:46.871Z,100949.45
2019-05-23T22:25:20.735Z,100943.10
2019-05-23T22:27:50.688Z,100936.00
2019-05-23T22:30:20.756Z,100933.99
2019-05-23T22:32:51.434Z,100936.80
2019-05-23T22:35:21.514Z,100937.44
2019-05-23T22:37:51.459Z,100932.89
2019-05-23T22:40:21.434Z,100928.86
2019-05-23T22:42:51.299Z,100924.42
2019-05-23T22:45:23.685Z,100927.48
2019-05-23T22:47:53.662Z,100918.91
2019-05-23T22:50:23.708Z,100917.41
2019-05-23T22:52:53.874Z,100916.26
2019-05-23T22:55:23.886Z,100913.12
2019-05-23T22:57:53.686Z,100910.21
2019-05-23T23:00:31.017Z,100905.55
2019-05-23T23:03:01.190Z,100913.20
2019-05-23T23:05:31.364Z,100916.00
2019-05-23T23:08:01.251Z,100913.46
2019-05-23T23:10:31.487Z,100910.32
2019-05-23T23:13:01.507Z,100911.45
2019-05-23T23:15:32.183Z,100906.52
2019-05-23T23:18:02.266Z,100910.73
2019-05-23T23:20:32.204Z,100911.48
2019-05-23T23:23:02.228Z,100902.38
2019-05-23T23:25:32.723Z,100917.97
2019-05-23T23:28:02.798Z,100906.44
2019-05-23T23:30:35.963Z,100903.78
2019-05-23T23:33:05.903Z,100904.38
2019-05-23T23:35:37.003Z,100902.36
2019-05-23T23:38:07.113Z,100904.03
2019-05-23T23:40:38.407Z,100907.09
2019-05-23T23:43:08.310Z,100904.44
2019-05-23T23:45:56.200Z,100901.37
2019-05-23T23:49:03.091Z,100900.52
2019-05-23T23:51:52.001Z,100897.60
2019-05-23T23:54:39.982Z,100902.30
2019-05-23T23:57:27.837Z,100945.80
